sensor_id;sensor_type;location;lat;lon;timestamp;P1;durP1;ratioP1;P2;durP2;ratioP2
16900;SDS011;8567;52.540;6.434;2023-02-20T07:20:07;33.13;;;31.35;;
16900;SDS011;8567;52.540;6.434;2023-02-20T07:22:36;33.13;;;31.33;;
16900;SDS011;8567;52.540;6.434;2023-02-20T07:25:03;33.83;;;32.08;;
16900;SDS011;8567;52.540;6.434;2023-02-20T07:27:31;33.42;;;31.73;;
16900;SDS011;8567;52.540;6.434;2023-02-20T07:29:57;34.10;;;32.38;;
16900;SDS011;8567;52.540;6.434;2023-02-20T07:32:24;35.03;;;33.03;;
16900;SDS011;8567;52.540;6.434;2023-02-20T07:36:33;33.42;;;31.73;;
16900;SDS011;8567;52.540;6.434;2023-02-20T07:39:00;33.65;;;31.98;;
16900;SDS011;8567;52.540;6.434;2023-02-20T07:41:31;31.25;;;29.70;;
16900;SDS011;8567;52.540;6.434;2023-02-20T07:43:59;35.00;;;33.30;;
16900;SDS011;8567;52.540;6.434;2023-02-20T07:46:25;37.33;;;35.47;;
16900;SDS011;8567;52.540;6.434;2023-02-20T07:48:52;37.20;;;35.25;;
16900;SDS011;8567;52.540;6.434;2023-02-20T07:51:19;38.70;;;36.80;;
16900;SDS011;8567;52.540;6.434;2023-02-20T07:53:47;39.95;;;37.90;;
16900;SDS011;8567;52.540;6.434;2023-02-20T07:56:15;39.55;;;37.53;;
16900;SDS011;8567;52.540;6.434;2023-02-20T07:58:42;38.70;;;36.78;;
16900;SDS011;8567;52.540;6.434;2023-02-20T08:01:08;41.03;;;39.00;;
16900;SDS011;8567;52.540;6.434;2023-02-20T08:03:35;38.15;;;36.22;;
16900;SDS011;8567;52.540;6.434;2023-02-20T08:06:02;39.67;;;37.72;;
16900;SDS011;8567;52.540;6.434;2023-02-20T08:08:29;39.80;;;37.58;;
16900;SDS011;8567;52.540;6.434;2023-02-20T08:10:57;39.60;;;37.65;;
16900;SDS011;8567;52.540;6.434;2023-02-20T08:13:24;43.97;;;41.80;;
16900;SDS011;8567;52.540;6.434;2023-02-20T08:15:51;41.28;;;39.20;;
16900;SDS011;8567;52.540;6.434;2023-02-20T08:18:18;40.53;;;38.53;;
16900;SDS011;8567;52.540;6.434;2023-02-20T08:20:45;42.60;;;40.47;;
16900;SDS011;8567;52.540;6.434;2023-02-20T08:23:15;44.00;;;41.65;;
16900;SDS011;8567;52.540;6.434;2023-02-20T08:25:42;41.88;;;39.78;;
16900;SDS011;8567;52.540;6.434;2023-02-20T08:28:11;38.08;;;36.20;;
16900;SDS011;8567;52.540;6.434;2023-02-20T08:30:38;39.92;;;37.95;;
16900;SDS011;8567;52.540;6.434;2023-02-20T08:33:05;42.55;;;40.45;;
16900;SDS011;8567;52.540;6.434;2023-02-20T08:35:32;42.15;;;39.95;;
16900;SDS011;8567;52.540;6.434;2023-02-20T08:37:59;41.10;;;39.08;;
16900;SDS011;8567;52.540;6.434;2023-02-20T08:40:26;43.10;;;40.97;;
16900;SDS011;8567;52.540;6.434;2023-02-20T08:42:53;41.63;;;39.58;;
16900;SDS011;8567;52.540;6.434;2023-02-20T08:45:21;45.15;;;42.92;;
16900;SDS011;8567;52.540;6.434;2023-02-20T08:47:48;42.83;;;40.72;;
16900;SDS011;8567;52.540;6.434;2023-02-20T08:50:15;43.05;;;40.90;;
16900;SDS011;8567;52.540;6.434;2023-02-20T08:52:43;40.33;;;38.33;;
16900;SDS011;8567;52.540;6.434;2023-02-20T08:55:10;39.80;;;37.80;;
16900;SDS011;8567;52.540;6.434;2023-02-20T08:57:41;41.13;;;38.92;;
16900;SDS011;8567;52.540;6.434;2023-02-20T09:00:08;40.75;;;38.72;;
16900;SDS011;8567;52.540;6.434;2023-02-20T09:02:37;39.38;;;37.25;;
16900;SDS011;8567;52.540;6.434;2023-02-20T09:05:04;41.22;;;39.10;;
16900;SDS011;8567;52.540;6.434;2023-02-20T09:07:32;40.95;;;38.90;;
16900;SDS011;8567;52.540;6.434;2023-02-20T09:09:59;37.35;;;35.45;;
16900;SDS011;8567;52.540;6.434;2023-02-20T09:12:26;33.85;;;32.17;;
16900;SDS011;8567;52.540;6.434;2023-02-20T09:14:53;30.65;;;29.10;;
16900;SDS011;8567;52.540;6.434;2023-02-20T09:17:19;31.08;;;29.27;;
16900;SDS011;8567;52.540;6.434;2023-02-20T09:19:47;31.10;;;29.55;;
16900;SDS011;8567;52.540;6.434;2023-02-20T09:22:14;29.55;;;28.08;;
16900;SDS011;8567;52.540;6.434;2023-02-20T09:24:41;31.63;;;30.00;;
16900;SDS011;8567;52.540;6.434;2023-02-20T09:27:08;33.25;;;31.55;;
16900;SDS011;8567;52.540;6.434;2023-02-20T09:29:34;29.90;;;28.38;;
16900;SDS011;8567;52.540;6.434;2023-02-20T09:32:05;31.08;;;29.45;;
16900;SDS011;8567;52.540;6.434;2023-02-20T09:34:32;31.63;;;30.02;;
16900;SDS011;8567;52.540;6.434;2023-02-20T09:37:00;31.50;;;29.90;;
16900;SDS011;8567;52.540;6.434;2023-02-20T09:39:27;32.08;;;30.42;;
16900;SDS011;8567;52.540;6.434;2023-02-20T09:41:58;31.40;;;29.88;;
16900;SDS011;8567;52.540;6.434;2023-02-20T09:44:36;31.35;;;29.83;;
16900;SDS011;8567;52.540;6.434;2023-02-20T09:47:17;34.70;;;32.90;;
16900;SDS011;8567;52.540;6.434;2023-02-20T09:49:55;35.45;;;33.60;;
16900;SDS011;8567;52.540;6.434;2023-02-20T09:52:26;36.38;;;34.50;;
16900;SDS011;8567;52.540;6.434;2023-02-20T09:54:57;37.53;;;35.63;;
16900;SDS011;8567;52.540;6.434;2023-02-20T09:57:28;40.33;;;38.25;;
16900;SDS011;8567;52.540;6.434;2023-02-20T09:59:57;37.03;;;35.10;;
16900;SDS011;8567;52.540;6.434;2023-02-20T10:02:29;37.90;;;35.90;;
16900;SDS011;8567;52.540;6.434;2023-02-20T10:04:58;39.13;;;36.63;;
16900;SDS011;8567;52.540;6.434;2023-02-20T10:07:30;41.08;;;38.90;;
16900;SDS011;8567;52.540;6.434;2023-02-20T10:09:59;41.55;;;39.40;;
16900;SDS011;8567;52.540;6.434;2023-02-20T10:12:28;39.40;;;37.15;;
16900;SDS011;8567;52.540;6.434;2023-02-20T10:15:10;41.85;;;39.35;;
16900;SDS011;8567;52.540;6.434;2023-02-20T10:17:46;40.20;;;38.10;;
16900;SDS011;8567;52.540;6.434;2023-02-20T10:20:21;42.90;;;40.42;;
16900;SDS011;8567;52.540;6.434;2023-02-20T10:22:55;43.20;;;40.92;;
16900;SDS011;8567;52.540;6.434;2023-02-20T10:25:28;41.95;;;39.78;;
16900;SDS011;8567;52.540;6.434;2023-02-20T10:27:59;42.90;;;40.30;;
16900;SDS011;8567;52.540;6.434;2023-02-20T10:30:31;42.85;;;40.60;;
16900;SDS011;8567;52.540;6.434;2023-02-20T10:33:03;41.92;;;39.78;;
16900;SDS011;8567;52.540;6.434;2023-02-20T10:35:42;41.35;;;39.22;;
16900;SDS011;8567;52.540;6.434;2023-02-20T10:38:16;42.03;;;39.88;;
16900;SDS011;8567;52.540;6.434;2023-02-20T10:40:46;44.63;;;41.97;;
16900;SDS011;8567;52.540;6.434;2023-02-20T10:43:17;43.17;;;40.80;;
16900;SDS011;8567;52.540;6.434;2023-02-20T10:45:51;43.25;;;40.92;;
16900;SDS011;8567;52.540;6.434;2023-02-20T10:48:22;41.92;;;39.70;;
16900;SDS011;8567;52.540;6.434;2023-02-20T10:50:58;45.08;;;42.78;;
16900;SDS011;8567;52.540;6.434;2023-02-20T10:53:34;45.67;;;43.15;;
16900;SDS011;8567;52.540;6.434;2023-02-20T10:56:07;45.42;;;42.95;;
16900;SDS011;8567;52.540;6.434;2023-02-20T10:58:38;41.53;;;39.42;;
16900;SDS011;8567;52.540;6.434;2023-02-20T11:01:10;45.45;;;43.15;;
16900;SDS011;8567;52.540;6.434;2023-02-20T11:03:43;44.85;;;42.45;;
16900;SDS011;8567;52.540;6.434;2023-02-20T11:06:15;43.03;;;40.88;;
16900;SDS011;8567;52.540;6.434;2023-02-20T11:08:46;42.30;;;40.20;;
16900;SDS011;8567;52.540;6.434;2023-02-20T11:11:20;42.03;;;39.88;;
16900;SDS011;8567;52.540;6.434;2023-02-20T11:13:54;41.90;;;39.50;;
16900;SDS011;8567;52.540;6.434;2023-02-20T11:16:25;43.70;;;41.33;;
16900;SDS011;8567;52.540;6.434;2023-02-20T11:19:00;42.00;;;39.85;;
16900;SDS011;8567;52.540;6.434;2023-02-20T11:21:35;39.85;;;37.72;;
16900;SDS011;8567;52.540;6.434;2023-02-20T11:24:18;41.80;;;39.72;;
16900;SDS011;8567;52.540;6.434;2023-02-20T11:27:09;39.75;;;37.72;;
16900;SDS011;8567;52.540;6.434;2023-02-20T11:29:40;38.63;;;36.55;;
16900;SDS011;8567;52.540;6.434;2023-02-20T11:32:23;41.28;;;39.17;;
16900;SDS011;8567;52.540;6.434;2023-02-20T11:37:51;45.42;;;42.42;;
16900;SDS011;8567;52.540;6.434;2023-02-20T11:41:01;41.40;;;38.97;;
16900;SDS011;8567;52.540;6.434;2023-02-20T11:43:48;41.20;;;38.60;;
16900;SDS011;8567;52.540;6.434;2023-02-20T11:46:31;43.45;;;40.65;;
16900;SDS011;8567;52.540;6.434;2023-02-20T11:48:59;46.42;;;43.63;;
16900;SDS011;8567;52.540;6.434;2023-02-20T11:51:33;47.13;;;43.88;;
16900;SDS011;8567;52.540;6.434;2023-02-20T11:54:06;84.32;;;78.15;;
16900;SDS011;8567;52.540;6.434;2023-02-20T11:56:35;46.50;;;43.70;;
16900;SDS011;8567;52.540;6.434;2023-02-20T12:01:52;43.58;;;40.78;;
16900;SDS011;8567;52.540;6.434;2023-02-20T12:04:20;47.53;;;44.40;;
16900;SDS011;8567;52.540;6.434;2023-02-20T12:06:48;44.38;;;41.33;;
16900;SDS011;8567;52.540;6.434;2023-02-20T12:09:16;46.10;;;43.13;;
16900;SDS011;8567;52.540;6.434;2023-02-20T12:11:47;48.80;;;45.78;;
16900;SDS011;8567;52.540;6.434;2023-02-20T12:14:16;41.38;;;38.78;;
16900;SDS011;8567;52.540;6.434;2023-02-20T12:16:54;38.08;;;35.88;;
16900;SDS011;8567;52.540;6.434;2023-02-20T12:19:28;35.75;;;33.58;;
16900;SDS011;8567;52.540;6.434;2023-02-20T12:22:03;30.75;;;28.65;;
16900;SDS011;8567;52.540;6.434;2023-02-20T12:24:50;27.35;;;25.15;;
16900;SDS011;8567;52.540;6.434;2023-02-20T12:30:23;26.45;;;24.17;;
16900;SDS011;8567;52.540;6.434;2023-02-20T12:32:59;27.35;;;24.88;;
16900;SDS011;8567;52.540;6.434;2023-02-20T12:35:34;28.10;;;26.05;;
16900;SDS011;8567;52.540;6.434;2023-02-20T12:38:11;26.77;;;24.95;;
16900;SDS011;8567;52.540;6.434;2023-02-20T12:40:56;23.83;;;21.77;;
16900;SDS011;8567;52.540;6.434;2023-02-20T12:43:47;23.27;;;21.60;;
16900;SDS011;8567;52.540;6.434;2023-02-20T12:46:23;23.00;;;21.60;;
16900;SDS011;8567;52.540;6.434;2023-02-20T12:49:07;22.75;;;21.17;;
16900;SDS011;8567;52.540;6.434;2023-02-20T12:51:43;24.67;;;22.75;;
16900;SDS011;8567;52.540;6.434;2023-02-20T12:54:22;20.60;;;18.73;;
16900;SDS011;8567;52.540;6.434;2023-02-20T12:56:57;20.50;;;18.90;;
16900;SDS011;8567;52.540;6.434;2023-02-20T12:59:37;25.02;;;23.13;;
16900;SDS011;8567;52.540;6.434;2023-02-20T13:02:14;24.45;;;22.75;;
16900;SDS011;8567;52.540;6.434;2023-02-20T13:04:51;24.50;;;22.70;;
16900;SDS011;8567;52.540;6.434;2023-02-20T13:07:20;25.60;;;23.70;;
16900;SDS011;8567;52.540;6.434;2023-02-20T13:09:53;22.55;;;21.00;;
16900;SDS011;8567;52.540;6.434;2023-02-20T13:12:27;25.27;;;23.50;;
16900;SDS011;8567;52.540;6.434;2023-02-20T13:14:59;26.77;;;24.90;;
16900;SDS011;8567;52.540;6.434;2023-02-20T13:17:41;24.25;;;22.58;;
16900;SDS011;8567;52.540;6.434;2023-02-20T13:20:16;23.10;;;21.33;;
16900;SDS011;8567;52.540;6.434;2023-02-20T13:22:56;22.38;;;20.80;;
16900;SDS011;8567;52.540;6.434;2023-02-20T13:28:23;29.05;;;27.23;;
16900;SDS011;8567;52.540;6.434;2023-02-20T13:31:07;24.00;;;22.20;;
16900;SDS011;8567;52.540;6.434;2023-02-20T13:33:36;24.15;;;22.45;;
16900;SDS011;8567;52.540;6.434;2023-02-20T13:36:04;24.00;;;22.63;;
16900;SDS011;8567;52.540;6.434;2023-02-20T13:38:39;27.60;;;25.88;;
16900;SDS011;8567;52.540;6.434;2023-02-20T13:41:07;28.08;;;26.30;;
16900;SDS011;8567;52.540;6.434;2023-02-20T13:43:35;29.73;;;27.92;;
16900;SDS011;8567;52.540;6.434;2023-02-20T13:48:54;24.88;;;23.38;;
16900;SDS011;8567;52.540;6.434;2023-02-20T13:51:28;26.17;;;24.40;;
16900;SDS011;8567;52.540;6.434;2023-02-20T13:54:22;27.27;;;25.23;;
16900;SDS011;8567;52.540;6.434;2023-02-20T13:56:52;29.77;;;27.65;;
16900;SDS011;8567;52.540;6.434;2023-02-20T13:59:23;28.45;;;26.85;;
16900;SDS011;8567;52.540;6.434;2023-02-20T14:01:53;26.55;;;25.05;;
16900;SDS011;8567;52.540;6.434;2023-02-20T14:04:26;26.02;;;24.52;;
16900;SDS011;8567;52.540;6.434;2023-02-20T14:06:54;30.30;;;28.63;;
16900;SDS011;8567;52.540;6.434;2023-02-20T14:09:22;30.98;;;29.25;;
16900;SDS011;8567;52.540;6.434;2023-02-20T14:11:54;28.30;;;26.60;;
16900;SDS011;8567;52.540;6.434;2023-02-20T14:14:31;28.70;;;27.00;;
16900;SDS011;8567;52.540;6.434;2023-02-20T14:17:05;28.90;;;27.10;;
16900;SDS011;8567;52.540;6.434;2023-02-20T14:19:36;30.92;;;29.13;;
16900;SDS011;8567;52.540;6.434;2023-02-20T14:27:47;29.70;;;28.00;;
16900;SDS011;8567;52.540;6.434;2023-02-20T14:30:15;30.35;;;28.35;;
16900;SDS011;8567;52.540;6.434;2023-02-20T14:32:45;27.38;;;25.65;;
16900;SDS011;8567;52.540;6.434;2023-02-20T14:35:22;28.80;;;26.92;;
16900;SDS011;8567;52.540;6.434;2023-02-20T14:37:57;26.52;;;24.90;;
16900;SDS011;8567;52.540;6.434;2023-02-20T14:40:36;26.95;;;25.35;;
16900;SDS011;8567;52.540;6.434;2023-02-20T14:43:09;24.52;;;23.05;;
16900;SDS011;8567;52.540;6.434;2023-02-20T14:45:40;26.77;;;25.20;;
16900;SDS011;8567;52.540;6.434;2023-02-20T14:48:20;24.63;;;23.13;;
16900;SDS011;8567;52.540;6.434;2023-02-20T14:51:01;25.35;;;23.65;;
16900;SDS011;8567;52.540;6.434;2023-02-20T14:53:33;26.05;;;24.58;;
16900;SDS011;8567;52.540;6.434;2023-02-20T14:56:08;26.70;;;25.00;;
16900;SDS011;8567;52.540;6.434;2023-02-20T14:58:36;25.65;;;24.02;;
16900;SDS011;8567;52.540;6.434;2023-02-20T15:01:12;28.40;;;26.55;;
16900;SDS011;8567;52.540;6.434;2023-02-20T15:03:46;23.88;;;22.55;;
16900;SDS011;8567;52.540;6.434;2023-02-20T15:06:24;26.17;;;24.55;;
16900;SDS011;8567;52.540;6.434;2023-02-20T15:08:54;24.75;;;23.25;;
16900;SDS011;8567;52.540;6.434;2023-02-20T15:11:22;27.25;;;25.65;;
16900;SDS011;8567;52.540;6.434;2023-02-20T15:13:49;27.98;;;26.48;;
16900;SDS011;8567;52.540;6.434;2023-02-20T15:16:19;27.08;;;25.38;;
16900;SDS011;8567;52.540;6.434;2023-02-20T15:18:49;25.77;;;24.38;;
16900;SDS011;8567;52.540;6.434;2023-02-20T15:21:29;26.95;;;25.17;;
16900;SDS011;8567;52.540;6.434;2023-02-20T15:27:08;28.30;;;26.70;;
16900;SDS011;8567;52.540;6.434;2023-02-20T15:29:36;31.52;;;29.60;;
16900;SDS011;8567;52.540;6.434;2023-02-20T15:32:04;28.73;;;27.05;;
16900;SDS011;8567;52.540;6.434;2023-02-20T15:34:40;28.73;;;27.13;;
16900;SDS011;8567;52.540;6.434;2023-02-20T15:37:15;28.08;;;26.55;;
16900;SDS011;8567;52.540;6.434;2023-02-20T15:39:45;28.48;;;26.88;;
16900;SDS011;8567;52.540;6.434;2023-02-20T15:42:13;29.48;;;27.48;;
16900;SDS011;8567;52.540;6.434;2023-02-20T15:44:40;30.45;;;28.60;;
16900;SDS011;8567;52.540;6.434;2023-02-20T15:47:07;29.92;;;28.17;;
16900;SDS011;8567;52.540;6.434;2023-02-20T15:49:34;28.23;;;26.67;;
16900;SDS011;8567;52.540;6.434;2023-02-20T15:52:02;29.67;;;28.10;;
16900;SDS011;8567;52.540;6.434;2023-02-20T15:54:31;34.78;;;32.97;;
16900;SDS011;8567;52.540;6.434;2023-02-20T15:56:58;33.85;;;32.05;;
16900;SDS011;8567;52.540;6.434;2023-02-20T15:59:25;35.67;;;33.72;;
16900;SDS011;8567;52.540;6.434;2023-02-20T16:01:52;37.97;;;35.88;;
16900;SDS011;8567;52.540;6.434;2023-02-20T16:04:19;31.63;;;29.83;;
16900;SDS011;8567;52.540;6.434;2023-02-20T16:06:45;43.95;;;41.55;;
16900;SDS011;8567;52.540;6.434;2023-02-20T16:09:14;35.60;;;33.67;;
16900;SDS011;8567;52.540;6.434;2023-02-20T16:11:41;33.20;;;31.40;;
16900;SDS011;8567;52.540;6.434;2023-02-20T16:14:11;33.70;;;31.95;;
16900;SDS011;8567;52.540;6.434;2023-02-20T16:16:40;30.38;;;28.58;;
16900;SDS011;8567;52.540;6.434;2023-02-20T16:19:10;32.08;;;30.42;;
16900;SDS011;8567;52.540;6.434;2023-02-20T16:21:38;34.85;;;32.95;;
16900;SDS011;8567;52.540;6.434;2023-02-20T16:24:05;38.45;;;36.45;;
16900;SDS011;8567;52.540;6.434;2023-02-20T16:26:33;31.30;;;29.70;;
16900;SDS011;8567;52.540;6.434;2023-02-20T16:29:01;34.05;;;32.25;;
16900;SDS011;8567;52.540;6.434;2023-02-20T16:34:49;30.48;;;28.95;;
16900;SDS011;8567;52.540;6.434;2023-02-20T16:37:16;30.67;;;29.08;;
16900;SDS011;8567;52.540;6.434;2023-02-20T16:39:44;34.05;;;32.22;;
16900;SDS011;8567;52.540;6.434;2023-02-20T16:44:59;33.72;;;31.92;;
16900;SDS011;8567;52.540;6.434;2023-02-20T16:47:29;34.35;;;32.58;;
16900;SDS011;8567;52.540;6.434;2023-02-20T16:49:56;36.72;;;34.38;;
16900;SDS011;8567;52.540;6.434;2023-02-20T16:52:26;33.22;;;31.35;;
16900;SDS011;8567;52.540;6.434;2023-02-20T16:54:54;36.65;;;34.58;;
16900;SDS011;8567;52.540;6.434;2023-02-20T16:57:22;35.78;;;33.90;;
16900;SDS011;8567;52.540;6.434;2023-02-20T16:59:51;40.13;;;38.00;;
16900;SDS011;8567;52.540;6.434;2023-02-20T17:02:21;36.83;;;34.78;;
16900;SDS011;8567;52.540;6.434;2023-02-20T17:04:49;35.38;;;33.55;;
16900;SDS011;8567;52.540;6.434;2023-02-20T17:07:17;38.47;;;36.03;;
16900;SDS011;8567;52.540;6.434;2023-02-20T17:09:44;35.70;;;33.88;;
16900;SDS011;8567;52.540;6.434;2023-02-20T17:12:11;37.97;;;36.00;;
16900;SDS011;8567;52.540;6.434;2023-02-20T17:14:38;36.00;;;34.03;;
16900;SDS011;8567;52.540;6.434;2023-02-20T17:17:06;35.78;;;33.67;;
16900;SDS011;8567;52.540;6.434;2023-02-20T17:19:35;34.60;;;32.78;;
16900;SDS011;8567;52.540;6.434;2023-02-20T17:22:02;35.42;;;33.47;;
16900;SDS011;8567;52.540;6.434;2023-02-20T17:24:29;34.05;;;32.22;;
16900;SDS011;8567;52.540;6.434;2023-02-20T17:26:57;33.63;;;31.60;;
16900;SDS011;8567;52.540;6.434;2023-02-20T17:29:24;39.65;;;35.83;;
16900;SDS011;8567;52.540;6.434;2023-02-20T17:31:51;45.78;;;37.15;;
16900;SDS011;8567;52.540;6.434;2023-02-20T17:34:20;46.85;;;35.20;;
16900;SDS011;8567;52.540;6.434;2023-02-20T17:36:46;45.85;;;33.17;;
16900;SDS011;8567;52.540;6.434;2023-02-20T17:39:14;33.28;;;29.75;;
16900;SDS011;8567;52.540;6.434;2023-02-20T17:41:42;41.17;;;29.73;;
16900;SDS011;8567;52.540;6.434;2023-02-20T17:44:08;39.67;;;27.42;;
16900;SDS011;8567;52.540;6.434;2023-02-20T17:46:35;37.33;;;27.60;;
16900;SDS011;8567;52.540;6.434;2023-02-20T17:49:02;28.30;;;24.60;;
16900;SDS011;8567;52.540;6.434;2023-02-20T17:51:30;31.45;;;25.15;;
16900;SDS011;8567;52.540;6.434;2023-02-20T17:53:57;26.90;;;23.95;;
16900;SDS011;8567;52.540;6.434;2023-02-20T17:56:24;29.42;;;21.83;;
16900;SDS011;8567;52.540;6.434;2023-02-20T17:58:51;31.85;;;21.83;;
16900;SDS011;8567;52.540;6.434;2023-02-20T18:01:18;33.67;;;21.20;;
16900;SDS011;8567;52.540;6.434;2023-02-20T18:03:46;28.25;;;20.35;;
16900;SDS011;8567;52.540;6.434;2023-02-20T18:06:13;27.25;;;19.88;;
16900;SDS011;8567;52.540;6.434;2023-02-20T18:08:41;31.52;;;19.02;;
16900;SDS011;8567;52.540;6.434;2023-02-20T18:11:07;22.55;;;17.23;;
16900;SDS011;8567;52.540;6.434;2023-02-20T18:13:34;23.27;;;16.95;;
16900;SDS011;8567;52.540;6.434;2023-02-20T18:16:01;27.17;;;16.42;;
16900;SDS011;8567;52.540;6.434;2023-02-20T18:18:28;23.48;;;14.20;;
16900;SDS011;8567;52.540;6.434;2023-02-20T18:20:55;25.80;;;14.05;;
16900;SDS011;8567;52.540;6.434;2023-02-20T18:23:21;23.55;;;13.90;;
16900;SDS011;8567;52.540;6.434;2023-02-20T18:25:49;22.33;;;14.35;;
16900;SDS011;8567;52.540;6.434;2023-02-20T18:28:17;22.35;;;14.65;;
16900;SDS011;8567;52.540;6.434;2023-02-20T18:30:44;20.35;;;14.15;;
16900;SDS011;8567;52.540;6.434;2023-02-20T18:33:11;19.92;;;15.00;;
16900;SDS011;8567;52.540;6.434;2023-02-20T18:35:38;21.40;;;14.25;;
16900;SDS011;8567;52.540;6.434;2023-02-20T18:38:05;19.90;;;14.80;;
16900;SDS011;8567;52.540;6.434;2023-02-20T18:40:31;16.98;;;14.48;;
16900;SDS011;8567;52.540;6.434;2023-02-20T18:43:00;19.90;;;14.98;;
16900;SDS011;8567;52.540;6.434;2023-02-20T18:45:27;17.77;;;13.85;;
16900;SDS011;8567;52.540;6.434;2023-02-20T18:47:54;24.17;;;16.13;;
16900;SDS011;8567;52.540;6.434;2023-02-20T18:50:20;19.33;;;14.63;;
16900;SDS011;8567;52.540;6.434;2023-02-20T18:52:47;19.73;;;14.52;;
16900;SDS011;8567;52.540;6.434;2023-02-20T18:55:15;16.98;;;14.02;;
16900;SDS011;8567;52.540;6.434;2023-02-20T18:57:44;18.10;;;13.85;;
16900;SDS011;8567;52.540;6.434;2023-02-20T19:00:14;18.83;;;13.32;;
16900;SDS011;8567;52.540;6.434;2023-02-20T19:02:42;19.02;;;13.82;;
16900;SDS011;8567;52.540;6.434;2023-02-20T19:05:09;18.23;;;13.90;;
16900;SDS011;8567;52.540;6.434;2023-02-20T19:07:39;20.48;;;14.65;;
16900;SDS011;8567;52.540;6.434;2023-02-20T19:10:06;15.93;;;14.05;;
16900;SDS011;8567;52.540;6.434;2023-02-20T19:12:33;18.73;;;13.77;;
16900;SDS011;8567;52.540;6.434;2023-02-20T19:15:00;17.42;;;13.82;;
16900;SDS011;8567;52.540;6.434;2023-02-20T19:17:30;18.25;;;13.43;;
16900;SDS011;8567;52.540;6.434;2023-02-20T19:19:56;15.07;;;13.60;;
16900;SDS011;8567;52.540;6.434;2023-02-20T19:22:23;14.82;;;12.55;;
16900;SDS011;8567;52.540;6.434;2023-02-20T19:24:50;15.50;;;12.90;;
16900;SDS011;8567;52.540;6.434;2023-02-20T19:27:17;14.73;;;13.35;;
16900;SDS011;8567;52.540;6.434;2023-02-20T19:29:44;14.48;;;13.02;;
16900;SDS011;8567;52.540;6.434;2023-02-20T19:32:10;15.27;;;13.82;;
16900;SDS011;8567;52.540;6.434;2023-02-20T19:34:39;14.35;;;12.95;;
16900;SDS011;8567;52.540;6.434;2023-02-20T19:37:05;15.13;;;13.63;;
16900;SDS011;8567;52.540;6.434;2023-02-20T19:39:32;14.63;;;13.35;;
16900;SDS011;8567;52.540;6.434;2023-02-20T19:41:59;16.13;;;14.75;;
16900;SDS011;8567;52.540;6.434;2023-02-20T19:44:26;15.55;;;13.45;;
16900;SDS011;8567;52.540;6.434;2023-02-20T19:46:53;15.27;;;13.98;;
16900;SDS011;8567;52.540;6.434;2023-02-20T19:49:20;14.63;;;13.30;;
16900;SDS011;8567;52.540;6.434;2023-02-20T19:51:49;15.05;;;13.80;;
16900;SDS011;8567;52.540;6.434;2023-02-20T19:54:19;16.58;;;14.88;;
16900;SDS011;8567;52.540;6.434;2023-02-20T19:56:48;15.10;;;13.63;;
16900;SDS011;8567;52.540;6.434;2023-02-20T19:59:16;14.32;;;13.05;;
16900;SDS011;8567;52.540;6.434;2023-02-20T20:01:47;14.65;;;13.23;;
16900;SDS011;8567;52.540;6.434;2023-02-20T20:04:15;14.52;;;13.20;;
16900;SDS011;8567;52.540;6.434;2023-02-20T20:06:42;13.65;;;12.43;;
16900;SDS011;8567;52.540;6.434;2023-02-20T20:09:11;16.35;;;14.93;;
16900;SDS011;8567;52.540;6.434;2023-02-20T20:11:38;15.25;;;13.95;;
16900;SDS011;8567;52.540;6.434;2023-02-20T20:14:05;14.98;;;13.77;;
16900;SDS011;8567;52.540;6.434;2023-02-20T20:16:32;15.07;;;13.80;;
16900;SDS011;8567;52.540;6.434;2023-02-20T20:19:01;14.77;;;13.52;;
16900;SDS011;8567;52.540;6.434;2023-02-20T20:21:29;15.95;;;14.38;;
16900;SDS011;8567;52.540;6.434;2023-02-20T20:23:56;15.82;;;14.40;;
16900;SDS011;8567;52.540;6.434;2023-02-20T20:26:25;16.73;;;15.27;;
16900;SDS011;8567;52.540;6.434;2023-02-20T20:28:53;14.80;;;13.65;;
16900;SDS011;8567;52.540;6.434;2023-02-20T20:31:21;15.25;;;14.15;;
16900;SDS011;8567;52.540;6.434;2023-02-20T20:33:49;14.98;;;13.80;;
16900;SDS011;8567;52.540;6.434;2023-02-20T20:36:16;15.57;;;14.38;;
16900;SDS011;8567;52.540;6.434;2023-02-20T20:38:43;16.35;;;15.20;;
16900;SDS011;8567;52.540;6.434;2023-02-20T20:41:10;16.50;;;15.25;;
16900;SDS011;8567;52.540;6.434;2023-02-20T20:43:42;17.52;;;15.98;;
16900;SDS011;8567;52.540;6.434;2023-02-20T20:46:09;16.05;;;14.95;;
16900;SDS011;8567;52.540;6.434;2023-02-20T20:48:39;15.88;;;14.77;;
16900;SDS011;8567;52.540;6.434;2023-02-20T20:51:06;14.98;;;13.68;;
16900;SDS011;8567;52.540;6.434;2023-02-20T20:53:33;16.60;;;15.30;;
16900;SDS011;8567;52.540;6.434;2023-02-20T20:56:00;16.15;;;14.95;;
16900;SDS011;8567;52.540;6.434;2023-02-20T20:58:29;16.50;;;15.20;;
16900;SDS011;8567;52.540;6.434;2023-02-20T21:00:57;17.13;;;15.93;;
16900;SDS011;8567;52.540;6.434;2023-02-20T21:03:24;16.05;;;14.85;;
16900;SDS011;8567;52.540;6.434;2023-02-20T21:05:51;15.00;;;13.98;;
16900;SDS011;8567;52.540;6.434;2023-02-20T21:08:18;16.85;;;15.80;;
16900;SDS011;8567;52.540;6.434;2023-02-20T21:10:45;16.33;;;15.20;;
16900;SDS011;8567;52.540;6.434;2023-02-20T21:13:12;18.55;;;17.13;;
16900;SDS011;8567;52.540;6.434;2023-02-20T21:15:39;16.50;;;15.50;;
16900;SDS011;8567;52.540;6.434;2023-02-20T21:18:08;15.68;;;14.63;;
16900;SDS011;8567;52.540;6.434;2023-02-20T21:20:34;16.65;;;15.60;;
16900;SDS011;8567;52.540;6.434;2023-02-20T21:23:01;16.20;;;14.90;;
16900;SDS011;8567;52.540;6.434;2023-02-20T21:25:30;17.30;;;16.30;;
16900;SDS011;8567;52.540;6.434;2023-02-20T21:27:57;17.65;;;16.65;;
16900;SDS011;8567;52.540;6.434;2023-02-20T21:30:24;17.98;;;16.92;;
16900;SDS011;8567;52.540;6.434;2023-02-20T21:32:52;17.67;;;16.48;;
16900;SDS011;8567;52.540;6.434;2023-02-20T21:35:20;18.23;;;17.13;;
16900;SDS011;8567;52.540;6.434;2023-02-20T21:37:48;17.85;;;16.70;;
16900;SDS011;8567;52.540;6.434;2023-02-20T21:40:15;18.15;;;17.10;;
16900;SDS011;8567;52.540;6.434;2023-02-20T21:42:42;17.52;;;16.33;;
16900;SDS011;8567;52.540;6.434;2023-02-20T21:45:26;14.88;;;13.88;;
16900;SDS011;8567;52.540;6.434;2023-02-20T21:47:53;16.90;;;15.68;;
16900;SDS011;8567;52.540;6.434;2023-02-20T21:50:21;17.27;;;16.23;;
16900;SDS011;8567;52.540;6.434;2023-02-20T21:52:48;18.45;;;17.30;;
16900;SDS011;8567;52.540;6.434;2023-02-20T21:55:15;18.58;;;17.38;;
16900;SDS011;8567;52.540;6.434;2023-02-20T21:57:43;19.17;;;18.08;;
16900;SDS011;8567;52.540;6.434;2023-02-20T22:00:11;17.50;;;16.50;;
16900;SDS011;8567;52.540;6.434;2023-02-20T22:02:38;17.27;;;16.15;;
16900;SDS011;8567;52.540;6.434;2023-02-20T22:05:04;19.38;;;18.27;;
16900;SDS011;8567;52.540;6.434;2023-02-20T22:07:32;18.02;;;16.83;;
16900;SDS011;8567;52.540;6.434;2023-02-20T22:10:17;18.48;;;17.38;;
16900;SDS011;8567;52.540;6.434;2023-02-20T22:13:01;18.30;;;17.20;;
16900;SDS011;8567;52.540;6.434;2023-02-20T22:15:46;17.17;;;16.05;;
16900;SDS011;8567;52.540;6.434;2023-02-20T22:18:30;18.02;;;17.02;;
16900;SDS011;8567;52.540;6.434;2023-02-20T22:21:16;17.30;;;16.23;;
16900;SDS011;8567;52.540;6.434;2023-02-20T22:24:02;17.75;;;16.75;;
16900;SDS011;8567;52.540;6.434;2023-02-20T22:26:47;15.90;;;15.00;;
16900;SDS011;8567;52.540;6.434;2023-02-20T22:29:32;18.00;;;16.95;;
16900;SDS011;8567;52.540;6.434;2023-02-20T22:32:17;19.15;;;18.05;;
16900;SDS011;8567;52.540;6.434;2023-02-20T22:35:01;17.55;;;16.42;;
16900;SDS011;8567;52.540;6.434;2023-02-20T22:37:46;21.15;;;19.80;;
16900;SDS011;8567;52.540;6.434;2023-02-20T22:40:31;21.15;;;19.65;;
16900;SDS011;8567;52.540;6.434;2023-02-20T22:43:15;20.65;;;19.38;;